createdAt,value
2023-05-08T00:00:49.860Z,15.23
2023-05-08T00:05:09.989Z,10.27
2023-05-08T00:09:29.009Z,9.37
2023-05-08T00:13:47.383Z,10.48
2023-05-08T00:18:05.706Z,10.60
2023-05-08T00:22:24.786Z,9.67
2023-05-08T00:26:45.762Z,9.23
2023-05-08T00:31:05.658Z,11.23
2023-05-08T00:35:23.692Z,11.30
2023-05-08T00:39:43.445Z,11.70
2023-05-08T00:44:02.861Z,11.23
2023-05-08T00:48:20.857Z,10.35
2023-05-08T00:52:38.991Z,9.07
2023-05-08T00:56:58.315Z,9.38
2023-05-08T01:01:19.067Z,10.10
2023-05-08T01:05:39.730Z,10.40
2023-05-08T01:09:57.285Z,8.63
2023-05-08T01:14:22.573Z,11.95
2023-05-08T01:18:47.360Z,11.23
2023-05-08T01:23:43.150Z,11.57
2023-05-08T01:28:46.838Z,13.10
2023-05-08T01:33:21.175Z,12.52
2023-05-08T01:37:43.534Z,11.73
2023-05-08T01:42:08.323Z,10.73
2023-05-08T01:46:29.896Z,11.60
2023-05-08T01:50:55.020Z,9.73
2023-05-08T01:55:19.188Z,11.45
2023-05-08T01:59:39.940Z,8.55
2023-05-08T02:04:00.469Z,12.60
2023-05-08T02:08:23.730Z,11.50
2023-05-08T02:12:45.402Z,11.38
2023-05-08T02:17:06.704Z,13.30
2023-05-08T02:21:27.800Z,12.40
2023-05-08T02:25:49.434Z,14.93
2023-05-08T02:30:09.846Z,13.00
2023-05-08T02:34:31.693Z,12.97
2023-05-08T02:38:53.369Z,13.23
2023-05-08T02:43:13.537Z,13.68
2023-05-08T02:47:41.981Z,15.00
2023-05-08T02:52:10.133Z,13.95
2023-05-08T02:56:37.400Z,14.68
2023-05-08T03:01:06.774Z,13.13
2023-05-08T03:05:30.624Z,14.20
2023-05-08T03:09:54.769Z,11.73
2023-05-08T03:14:17.232Z,13.75
2023-05-08T03:18:58.785Z,13.17
2023-05-08T03:23:20.044Z,13.70
2023-05-08T03:27:39.426Z,13.63
2023-05-08T03:32:02.354Z,14.07
2023-05-08T03:36:22.535Z,14.30
2023-05-08T03:40:42.738Z,13.82
2023-05-08T03:45:04.890Z,13.63
2023-05-08T03:49:26.511Z,14.30
2023-05-08T03:53:48.505Z,13.02
2023-05-08T03:58:12.140Z,13.32
2023-05-08T04:02:34.988Z,13.67
2023-05-08T04:07:09.216Z,13.15
2023-05-08T04:11:42.567Z,13.32
2023-05-08T04:16:11.576Z,8.87
2023-05-08T04:20:33.860Z,13.50
2023-05-08T04:24:55.986Z,11.07
2023-05-08T04:29:15.803Z,12.73
2023-05-08T04:33:35.895Z,9.20
2023-05-08T04:37:56.505Z,11.65
2023-05-08T04:42:14.185Z,9.80
2023-05-08T04:46:33.594Z,8.93
2023-05-08T04:50:53.229Z,9.68
2023-05-08T04:55:11.846Z,9.35
2023-05-08T04:59:33.049Z,10.37
2023-05-08T05:03:52.330Z,10.73
2023-05-08T05:08:11.570Z,9.75
2023-05-08T05:12:29.623Z,10.70
2023-05-08T05:16:47.799Z,11.03
2023-05-08T05:21:07.538Z,10.23
2023-05-08T05:25:27.000Z,9.30
2023-05-08T05:29:44.914Z,10.53
2023-05-08T05:34:03.081Z,9.27
2023-05-08T05:38:22.785Z,9.25
2023-05-08T05:42:42.276Z,9.13
2023-05-08T05:47:05.251Z,9.55
2023-05-08T05:51:24.479Z,9.45
2023-05-08T05:55:43.834Z,9.52
2023-05-08T06:00:04.028Z,10.13
2023-05-08T06:04:34.163Z,10.02
2023-05-08T06:08:52.231Z,9.43
2023-05-08T06:13:11.725Z,11.30
2023-05-08T06:17:31.940Z,9.27
2023-05-08T06:21:50.308Z,10.32
2023-05-08T06:26:07.325Z,10.63
2023-05-08T06:30:27.235Z,10.43
2023-05-08T06:34:46.935Z,9.55
2023-05-08T06:39:06.337Z,8.80
2023-05-08T06:43:25.814Z,9.03
2023-05-08T06:47:45.802Z,10.55
2023-05-08T06:52:05.298Z,8.38
2023-05-08T06:56:22.876Z,9.03
2023-05-08T07:00:41.075Z,9.13
2023-05-08T07:05:00.933Z,8.40
2023-05-08T07:09:23.929Z,9.17
2023-05-08T07:13:42.266Z,8.45
2023-05-08T07:18:05.619Z,8.45
2023-05-08T07:22:25.197Z,8.82
2023-05-08T07:26:44.833Z,9.93
2023-05-08T07:31:07.188Z,8.45
2023-05-08T07:35:27.186Z,9.55
2023-05-08T07:39:47.554Z,9.80
2023-05-08T07:44:06.192Z,8.55
2023-05-08T07:48:24.656Z,8.30
2023-05-08T07:52:42.485Z,10.17
2023-05-08T07:57:01.950Z,8.35
2023-05-08T08:01:21.738Z,10.30
2023-05-08T08:05:39.790Z,8.52
2023-05-08T08:09:57.563Z,9.70
2023-05-08T08:14:17.460Z,7.72
2023-05-08T08:18:37.328Z,9.35
2023-05-08T08:22:54.827Z,7.73
2023-05-08T08:27:13.355Z,7.38
2023-05-08T08:31:32.437Z,7.40
2023-05-08T08:35:52.152Z,8.90
2023-05-08T08:40:11.021Z,8.95
2023-05-08T08:44:28.302Z,8.95
2023-05-08T08:48:48.521Z,8.57
2023-05-08T08:53:12.424Z,8.20
2023-05-08T08:57:35.408Z,8.70
2023-05-08T09:01:58.060Z,8.43
2023-05-08T09:06:18.468Z,9.23
2023-05-08T09:10:38.282Z,9.57
2023-05-08T09:14:56.154Z,8.35
2023-05-08T09:19:15.832Z,9.90
2023-05-08T09:23:39.191Z,12.85
2023-05-08T09:28:22.916Z,12.82
2023-05-08T09:32:43.938Z,9.38
2023-05-08T09:37:13.941Z,7.97
2023-05-08T09:41:35.426Z,7.78
2023-05-08T09:45:54.972Z,6.45
2023-05-08T09:50:13.370Z,8.40
2023-05-08T09:54:31.643Z,7.82
2023-05-08T09:58:50.335Z,7.30
2023-05-08T10:03:10.151Z,7.33
2023-05-08T10:07:33.190Z,8.60
2023-05-08T10:11:54.674Z,7.35
2023-05-08T10:16:17.114Z,7.72
2023-05-08T10:20:35.986Z,6.70
2023-05-08T10:24:58.628Z,7.20
2023-05-08T10:29:22.364Z,6.75
2023-05-08T10:33:45.893Z,5.63
2023-05-08T10:38:05.738Z,6.60
2023-05-08T10:42:23.897Z,7.05
2023-05-08T10:46:50.419Z,5.63
2023-05-08T10:51:15.377Z,6.93
2023-05-08T10:55:34.947Z,5.82
2023-05-08T10:59:53.873Z,6.07
2023-05-08T11:04:22.088Z,6.10
2023-05-08T11:08:48.936Z,5.47
2023-05-08T11:13:08.527Z,3.85
2023-05-08T11:17:28.019Z,5.97
2023-05-08T11:22:13.197Z,5.32
2023-05-08T11:26:41.445Z,4.75
2023-05-08T11:31:03.818Z,5.03
2023-05-08T11:35:45.011Z,4.78
2023-05-08T11:40:49.117Z,9.68
2023-05-08T11:45:10.008Z,6.00
2023-05-08T11:49:30.230Z,6.40
2023-05-08T11:53:48.822Z,5.10
2023-05-08T11:58:13.468Z,5.38
2023-05-08T12:02:43.558Z,5.00
2023-05-08T12:07:01.554Z,7.97
2023-05-08T12:11:24.812Z,7.25
2023-05-08T12:15:43.848Z,6.80
2023-05-08T12:20:14.558Z,5.40
2023-05-08T12:24:32.790Z,6.22
2023-05-08T12:28:56.645Z,5.32
2023-05-08T12:33:16.188Z,4.90
2023-05-08T12:37:37.503Z,5.53
2023-05-08T12:41:57.264Z,6.85
2023-05-08T12:46:17.853Z,6.00
2023-05-08T12:50:36.500Z,5.07
2023-05-08T12:54:55.490Z,5.20
2023-05-08T12:59:15.704Z,4.53
2023-05-08T13:03:34.246Z,5.75
2023-05-08T13:08:00.332Z,5.72
2023-05-08T13:12:20.855Z,6.70
2023-05-08T13:16:45.813Z,4.83
2023-05-08T13:21:03.829Z,5.68
2023-05-08T13:25:21.808Z,4.80
2023-05-08T13:29:41.646Z,8.63
2023-05-08T13:34:00.989Z,5.50
2023-05-08T13:38:19.041Z,4.45
2023-05-08T13:42:37.408Z,5.83
2023-05-08T13:46:56.595Z,5.18
2023-05-08T13:51:16.410Z,5.63
2023-05-08T13:55:34.332Z,5.22
2023-05-08T13:59:52.461Z,4.60
2023-05-08T14:04:11.859Z,6.32
2023-05-08T14:08:33.134Z,4.18
2023-05-08T14:12:52.782Z,5.27
2023-05-08T14:17:10.690Z,5.55
2023-05-08T14:21:30.985Z,5.40
2023-05-08T14:25:50.095Z,3.60
2023-05-08T14:30:09.306Z,4.53
2023-05-08T14:34:29.259Z,6.35
2023-05-08T14:38:48.666Z,4.90
2023-05-08T14:43:08.279Z,5.50
2023-05-08T14:47:27.113Z,5.10
2023-05-08T14:51:44.459Z,3.70
2023-05-08T14:56:04.207Z,5.70
2023-05-08T15:00:24.293Z,5.88
2023-05-08T15:04:46.062Z,6.10
2023-05-08T15:09:06.135Z,5.80
2023-05-08T15:13:25.458Z,5.40
2023-05-08T15:17:44.966Z,6.43
2023-05-08T15:22:03.815Z,6.50
2023-05-08T15:26:24.885Z,6.43
2023-05-08T15:30:46.664Z,5.35
2023-05-08T15:35:07.482Z,6.53
2023-05-08T15:39:24.700Z,6.83
2023-05-08T15:43:42.718Z,5.10
2023-05-08T15:48:02.096Z,5.88
2023-05-08T15:52:22.899Z,6.57
2023-05-08T15:56:42.785Z,5.97
2023-05-08T16:01:01.457Z,6.65
2023-05-08T16:05:20.370Z,6.47
2023-05-08T16:09:40.137Z,5.07
2023-05-08T16:13:58.944Z,5.30
2023-05-08T16:18:16.197Z,6.55
2023-05-08T16:22:36.073Z,5.80
2023-05-08T16:26:55.341Z,6.50
2023-05-08T16:31:13.663Z,6.82
2023-05-08T16:35:33.356Z,5.30
2023-05-08T16:39:54.599Z,6.10
2023-05-08T16:44:13.753Z,5.28
2023-05-08T16:48:33.376Z,4.85
2023-05-08T16:52:52.816Z,5.30
2023-05-08T16:57:12.374Z,7.03
2023-05-08T17:01:32.289Z,5.50
2023-05-08T17:05:49.990Z,5.73
2023-05-08T17:10:09.457Z,5.65
2023-05-08T17:14:30.966Z,5.63
2023-05-08T17:18:50.681Z,6.73
2023-05-08T17:23:08.524Z,5.80
2023-05-08T17:27:26.669Z,6.20
2023-05-08T17:31:46.068Z,5.30
2023-05-08T17:36:06.428Z,5.90
2023-05-08T17:40:25.882Z,6.43
2023-05-08T17:44:45.129Z,5.35
2023-05-08T17:49:04.488Z,5.13
2023-05-08T17:53:24.088Z,5.82
2023-05-08T17:57:42.256Z,7.38
2023-05-08T18:02:00.331Z,7.97
2023-05-08T18:06:21.670Z,6.70
2023-05-08T18:10:42.532Z,7.43
2023-05-08T18:15:03.626Z,6.82
2023-05-08T18:19:21.630Z,21.10
2023-05-08T18:23:41.833Z,8.70
2023-05-08T18:28:00.978Z,5.43
2023-05-08T18:32:18.951Z,6.37
2023-05-08T18:36:37.278Z,5.63
2023-05-08T18:40:56.937Z,6.60
2023-05-08T18:45:18.116Z,7.40
2023-05-08T18:49:40.244Z,5.43
2023-05-08T18:53:58.510Z,6.70
2023-05-08T18:58:18.020Z,9.20
2023-05-08T19:02:37.765Z,6.43
2023-05-08T19:06:55.902Z,6.78
2023-05-08T19:11:13.590Z,7.60
2023-05-08T19:15:33.595Z,6.33
2023-05-08T19:19:53.130Z,5.32
2023-05-08T19:24:10.976Z,6.55
2023-05-08T19:28:29.062Z,6.17
2023-05-08T19:32:48.486Z,5.32
2023-05-08T19:37:08.393Z,6.07
2023-05-08T19:41:26.523Z,6.97
2023-05-08T19:45:45.690Z,9.47
2023-05-08T19:50:08.581Z,6.60
2023-05-08T19:54:26.650Z,6.82
2023-05-08T19:58:44.996Z,7.30
2023-05-08T20:03:03.007Z,7.15
2023-05-08T20:07:22.187Z,7.43
2023-05-08T20:11:41.991Z,7.23
2023-05-08T20:16:00.082Z,10.23
2023-05-08T20:20:17.992Z,8.48
2023-05-08T20:24:37.507Z,8.75
2023-05-08T20:28:57.338Z,6.90
2023-05-08T20:33:15.421Z,9.85
2023-05-08T20:37:36.377Z,10.05
2023-05-08T20:41:55.670Z,8.90
2023-05-08T20:46:16.185Z,8.40
2023-05-08T20:50:33.589Z,9.60
2023-05-08T20:54:51.846Z,8.93
2023-05-08T20:59:11.501Z,9.43
2023-05-08T21:03:31.075Z,8.70
2023-05-08T21:07:49.470Z,9.65
2023-05-08T21:12:09.089Z,9.67
2023-05-08T21:16:33.556Z,9.45
2023-05-08T21:20:56.339Z,8.02
2023-05-08T21:25:17.892Z,10.03
2023-05-08T21:29:38.420Z,10.05
2023-05-08T21:33:57.824Z,11.85
2023-05-08T21:38:17.672Z,10.20
2023-05-08T21:42:38.563Z,8.75
2023-05-08T21:46:59.904Z,10.07
2023-05-08T21:51:22.918Z,10.15
2023-05-08T21:55:44.283Z,10.17
2023-05-08T22:00:02.817Z,9.50
2023-05-08T22:04:20.872Z,7.90
2023-05-08T22:08:40.028Z,12.63
2023-05-08T22:13:00.664Z,9.73
2023-05-08T22:17:21.001Z,11.45
2023-05-08T22:21:39.082Z,10.17
2023-05-08T22:25:58.791Z,11.20
2023-05-08T22:30:18.279Z,11.90
2023-05-08T22:34:36.417Z,11.55
2023-05-08T22:38:54.100Z,11.57
2023-05-08T22:43:13.814Z,14.88
2023-05-08T22:47:34.430Z,13.75
2023-05-08T22:51:54.504Z,11.33
2023-05-08T22:56:12.642Z,11.80
2023-05-08T23:00:32.179Z,11.00
2023-05-08T23:04:52.607Z,12.97
2023-05-08T23:09:09.701Z,13.27
2023-05-08T23:13:27.775Z,11.02
2023-05-08T23:17:47.312Z,10.90
2023-05-08T23:22:07.049Z,11.37
2023-05-08T23:26:28.197Z,12.23
2023-05-08T23:30:46.239Z,12.38
2023-05-08T23:35:06.784Z,13.23
2023-05-08T23:39:25.461Z,14.80
2023-05-08T23:43:43.590Z,12.30
2023-05-08T23:48:01.531Z,13.20
2023-05-08T23:52:22.029Z,14.07
2023-05-08T23:56:40.747Z,13.10
